Time;durP1;ratioP1;P1;durP2;ratioP2;P2;SDS_P1;SDS_P2;PMS_P1;PMS_P2;Temp;Humidity;BMP_temperature;BMP_pressure;BME280_temperature;BME280_humidity;BME280_pressure;Samples;Min_cycle;Max_cycle;Signal;HPM_P1;HPM_P2
2023/10/11 00:02:55;;;;;;;;;;;;;;;9.57;74.60;100637.22;5014472;28;816;-59
2023/10/11 00:05:23;;;;;;;;;;;;;;;9.57;74.69;100639.19;5014533;28;857;-59
2023/10/11 00:07:57;;;;;;;;;;;;;;;9.52;75.22;100639.53;5014375;28;842;-59
2023/10/11 00:10:24;;;;;;;;;;;;;;;9.55;76.21;100642.31;5014446;28;874;-59
2023/10/11 00:12:50;;;;;;;;;;;;;;;9.81;75.31;100635.97;5014553;28;923;-60
2023/10/11 00:15:17;;;;;;;;;;;;;;;10.08;72.88;100648.88;5014252;28;1886;-59
2023/10/11 00:17:46;;;;;;;;;;;;;;;10.18;72.07;100650.94;5014863;28;810;-59
2023/10/11 00:20:29;;;;;;;;;;;;;;;10.22;71.96;100641.53;5014056;28;965;-59
2023/10/11 00:22:55;;;;;;;;;;;;;;;10.26;71.78;100651.78;5014073;28;930;-59
2023/10/11 00:25:25;;;;;;;;;;;;;;;10.33;71.18;100640.88;5013883;28;965;-59
2023/10/11 00:27:51;;;;;;;;;;;;;;;10.39;71.05;100644.84;5012876;28;1565;-59
2023/10/11 00:30:19;;;;;;;;;;;;;;;10.30;71.71;100644.38;5014024;28;905;-59
2023/10/11 00:32:45;;;;;;;;;;;;;;;10.16;72.92;100645.00;5014042;28;1279;-59
2023/10/11 00:35:18;;;;;;;;;;;;;;;9.98;74.00;100644.81;5013896;28;1906;-59
2023/10/11 00:37:49;;;;;;;;;;;;;;;9.87;74.71;100652.97;5013804;28;862;-59
2023/10/11 00:40:25;;;;;;;;;;;;;;;9.82;75.05;100650.56;5013794;28;928;-59
2023/10/11 00:42:51;;;;;;;;;;;;;;;9.73;75.54;100652.78;5013677;28;969;-59
2023/10/11 00:45:22;;;;;;;;;;;;;;;9.56;76.42;100652.22;5013768;28;877;-59
2023/10/11 00:47:52;;;;;;;;;;;;;;;9.34;77.57;100659.38;5013546;28;1328;-59
2023/10/11 00:50:21;;;;;;;;;;;;;;;9.12;78.81;100652.00;5013409;28;943;-59
2023/10/11 00:52:48;;;;;;;;;;;;;;;8.91;80.49;100655.22;5013646;28;895;-59
2023/10/11 00:55:20;;;;;;;;;;;;;;;8.75;80.98;100656.16;5013299;28;1945;-59
2023/10/11 00:57:53;;;;;;;;;;;;;;;8.63;81.40;100655.56;5013574;28;826;-59
2023/10/11 01:00:21;;;;;;;;;;;;;;;8.52;82.39;100660.91;5013439;28;815;-59
2023/10/11 01:02:50;;;;;;;;;;;;;;;8.44;83.42;100659.19;5013408;28;992;-59
2023/10/11 01:05:17;;;;;;;;;;;;;;;8.37;84.37;100662.59;5013257;28;894;-59
2023/10/11 01:07:46;;;;;;;;;;;;;;;8.29;84.56;100660.84;5013381;28;865;-59
2023/10/11 01:10:13;;;;;;;;;;;;;;;8.17;85.75;100659.06;5013315;28;1258;-59
2023/10/11 01:12:40;;;;;;;;;;;;;;;8.11;85.60;100666.84;5013334;28;1017;-59
2023/10/11 01:15:11;;;;;;;;;;;;;;;8.04;86.36;100666.69;5012745;28;1969;-59
2023/10/11 01:17:41;;;;;;;;;;;;;;;7.98;87.52;100668.16;5013098;28;886;-59
2023/10/11 01:20:14;;;;;;;;;;;;;;;8.05;87.10;100673.78;5012980;28;895;-59
2023/10/11 01:22:41;;;;;;;;;;;;;;;8.10;86.89;100676.25;5013113;28;835;-59
2023/10/11 01:25:12;;;;;;;;;;;;;;;8.05;88.04;100682.06;5012800;28;886;-59
2023/10/11 01:27:39;;;;;;;;;;;;;;;8.02;88.84;100679.22;5012950;28;938;-59
2023/10/11 01:30:07;;;;;;;;;;;;;;;7.95;88.81;100685.38;5012926;28;858;-59
2023/10/11 01:32:37;;;;;;;;;;;;;;;7.99;89.24;100691.78;5012998;28;874;-59
2023/10/11 01:35:05;;;;;;;;;;;;;;;7.95;89.31;100694.44;5012732;28;1969;-59
2023/10/11 01:37:41;;;;;;;;;;;;;;;7.89;91.32;100686.84;5012880;28;1379;-59
2023/10/11 01:40:20;;;;;;;;;;;;;;;7.81;92.72;100699.69;5012756;28;859;-59
2023/10/11 01:42:49;;;;;;;;;;;;;;;7.93;93.61;100693.22;5012999;28;843;-59
2023/10/11 01:45:19;;;;;;;;;;;;;;;7.99;93.47;100702.78;5012843;28;819;-59
2023/10/11 01:47:46;;;;;;;;;;;;;;;8.00;93.94;100703.56;5011290;28;1288;-59
2023/10/11 01:50:16;;;;;;;;;;;;;;;7.93;94.60;100710.53;5012594;28;1057;-59
2023/10/11 01:52:43;;;;;;;;;;;;;;;7.77;95.75;100709.81;5012777;28;905;-59
2023/10/11 01:55:15;;;;;;;;;;;;;;;7.71;96.83;100714.00;5012317;28;1906;-59
2023/10/11 01:57:45;;;;;;;;;;;;;;;7.67;97.05;100711.16;5012489;28;874;-59
2023/10/11 02:00:15;;;;;;;;;;;;;;;7.73;97.96;100709.72;5011868;28;1441;-59
2023/10/11 02:03:17;;;;;;;;;;;;;;;7.97;96.87;100713.34;5012483;28;795;-59
2023/10/11 02:05:35;;;;;;;;;;;;;;;8.56;93.00;100708.59;5007966;28;1751;-59
2023/10/11 02:08:06;;;;;;;;;;;;;;;9.04;88.06;100719.25;5012446;28;811;-59
2023/10/11 02:10:36;;;;;;;;;;;;;;;9.45;83.21;100716.69;5012252;28;901;-59
2023/10/11 02:13:04;;;;;;;;;;;;;;;9.57;81.42;100716.47;5012292;28;949;-59
2023/10/11 02:15:31;;;;;;;;;;;;;;;9.52;81.63;100714.84;5011940;28;1879;-60
2023/10/11 02:17:57;;;;;;;;;;;;;;;9.48;80.74;100715.97;5012246;28;823;-59
2023/10/11 02:20:24;;;;;;;;;;;;;;;9.53;80.15;100721.16;5012204;28;889;-59
2023/10/11 02:22:52;;;;;;;;;;;;;;;9.58;79.81;100718.06;5012300;28;938;-59
2023/10/11 02:25:19;;;;;;;;;;;;;;;9.57;79.05;100722.78;5012133;28;864;-59
2023/10/11 02:27:49;;;;;;;;;;;;;;;9.60;78.00;100722.06;5012350;28;877;-59
2023/10/11 02:30:21;;;;;;;;;;;;;;;9.56;78.23;100723.97;5012165;28;858;-59
2023/10/11 02:32:48;;;;;;;;;;;;;;;9.40;78.64;100724.13;5011961;28;938;-60
2023/10/11 02:35:17;;;;;;;;;;;;;;;9.14;80.46;100718.63;5011878;28;2021;-59
2023/10/11 02:37:45;;;;;;;;;;;;;;;8.79;83.48;100728.69;5012224;28;1142;-59
2023/10/11 02:40:16;;;;;;;;;;;;;;;8.51;84.41;100725.41;5012517;28;901;-60
2023/10/11 02:42:44;;;;;;;;;;;;;;;8.27;87.09;100727.31;5011941;28;947;-59
2023/10/11 02:45:13;;;;;;;;;;;;;;;8.12;89.63;100726.25;5011821;28;909;-59
2023/10/11 02:47:40;;;;;;;;;;;;;;;7.94;90.77;100731.41;5012202;28;970;-59
2023/10/11 02:50:08;;;;;;;;;;;;;;;7.85;91.37;100730.81;5012005;28;889;-59
2023/10/11 02:52:39;;;;;;;;;;;;;;;7.75;92.42;100736.91;5012188;28;866;-59
2023/10/11 02:55:21;;;;;;;;;;;;;;;7.75;94.38;100736.91;5011603;28;1882;-59
2023/10/11 02:58:05;;;;;;;;;;;;;;;7.91;92.49;100726.59;5011800;28;940;-59
2023/10/11 03:00:33;;;;;;;;;;;;;;;7.95;92.24;100721.19;5010523;28;2405;-59
2023/10/11 03:03:00;;;;;;;;;;;;;;;7.90;92.58;100735.25;5011607;28;934;-59
2023/10/11 03:05:29;;;;;;;;;;;;;;;7.80;92.30;100733.84;5011740;28;939;-59
2023/10/11 03:08:16;;;;;;;;;;;;;;;7.71;93.07;100739.56;5011792;28;842;-59
2023/10/11 03:11:15;;;;;;;;;;;;;;;7.73;93.10;100752.97;5011687;28;859;-59
2023/10/11 03:13:41;;;;;;;;;;;;;;;7.81;92.50;100742.88;5013702;28;1581;-59
2023/10/11 03:16:17;;;;;;;;;;;;;;;7.77;92.25;100738.13;5015053;28;1489;-60
2023/10/11 03:18:46;;;;;;;;;;;;;;;7.73;93.33;100739.22;5015312;28;1232;-59
2023/10/11 03:21:17;;;;;;;;;;;;;;;7.84;92.41;100740.22;5015440;28;890;-59
2023/10/11 03:23:47;;;;;;;;;;;;;;;7.92;92.56;100733.72;5015185;28;930;-59
2023/10/11 03:26:31;;;;;;;;;;;;;;;8.13;91.11;100740.81;5015114;28;973;-59
2023/10/11 03:29:05;;;;;;;;;;;;;;;8.09;91.13;100738.00;5015151;28;926;-60
2023/10/11 03:31:33;;;;;;;;;;;;;;;8.12;91.25;100733.72;5015089;28;799;-59
2023/10/11 03:34:00;;;;;;;;;;;;;;;8.16;91.38;100734.59;5015045;28;1914;-59
2023/10/11 03:36:34;;;;;;;;;;;;;;;8.14;90.88;100742.41;5015035;28;869;-60
2023/10/11 03:39:10;;;;;;;;;;;;;;;8.07;90.98;100742.28;5014846;28;867;-59
2023/10/11 03:41:44;;;;;;;;;;;;;;;7.92;91.76;100739.22;5015160;28;894;-59
2023/10/11 03:44:20;;;;;;;;;;;;;;;7.78;92.78;100734.19;5014790;28;874;-59
2023/10/11 03:46:47;;;;;;;;;;;;;;;7.68;93.59;100739.47;5013696;28;1763;-59
2023/10/11 03:49:36;;;;;;;;;;;;;;;7.69;94.40;100732.81;5014813;28;885;-59
2023/10/11 03:52:01;;;;;;;;;;;;;;;7.81;95.24;100740.97;5014515;28;1904;-60
2023/10/11 03:54:27;;;;;;;;;;;;;;;8.06;94.34;100741.47;5014655;28;1890;-59
2023/10/11 03:56:54;;;;;;;;;;;;;;;8.05;93.25;100733.56;5014668;28;834;-60
2023/10/11 03:59:21;;;;;;;;;;;;;;;7.94;94.41;100736.13;5013385;28;1236;-60
2023/10/11 04:01:49;;;;;;;;;;;;;;;7.78;95.95;100736.94;5014803;28;902;-60
2023/10/11 04:04:17;;;;;;;;;;;;;;;7.67;98.18;100737.88;5014616;28;826;-60
2023/10/11 04:06:50;;;;;;;;;;;;;;;7.64;98.69;100733.09;5014367;28;937;-59
2023/10/11 04:09:37;;;;;;;;;;;;;;;7.75;100.00;100736.91;5014428;28;917;-59
2023/10/11 04:12:10;;;;;;;;;;;;;;;8.02;99.08;100739.78;5014382;28;917;-60
2023/10/11 04:14:45;;;;;;;;;;;;;;;8.02;98.06;100734.28;5014351;28;1965;-60
2023/10/11 04:17:25;;;;;;;;;;;;;;;7.94;98.03;100741.63;5013005;28;1281;-60
2023/10/11 04:20:05;;;;;;;;;;;;;;;7.80;99.16;100744.84;5014163;28;929;-60
2023/10/11 04:22:51;;;;;;;;;;;;;;;7.65;99.38;100745.72;5013974;28;2166;-59
2023/10/11 04:25:23;;;;;;;;;;;;;;;7.56;100.00;100741.19;5013580;28;938;-59
2023/10/11 04:27:57;;;;;;;;;;;;;;;7.48;99.85;100744.94;5014100;28;826;-60
2023/10/11 04:30:27;;;;;;;;;;;;;;;7.47;100.00;100742.56;5014003;28;890;-60
2023/10/11 04:32:56;;;;;;;;;;;;;;;7.52;100.00;100740.31;5014201;28;847;-60
2023/10/11 04:35:36;;;;;;;;;;;;;;;7.65;100.00;100753.97;5014063;28;1914;-59
2023/10/11 04:38:03;;;;;;;;;;;;;;;7.72;100.00;100751.34;5013931;28;869;-59
2023/10/11 04:43:04;;;;;;;;;;;;;;;8.29;100.00;100760.00;5014074;28;1055;-60
2023/10/11 04:45:44;;;;;;;;;;;;;;;8.63;100.00;100761.09;5013806;28;921;-60
2023/10/11 04:48:29;;;;;;;;;;;;;;;8.77;98.41;100755.03;5013767;28;783;-59
2023/10/11 04:51:04;;;;;;;;;;;;;;;8.90;96.40;100758.41;5013532;28;906;-60
2023/10/11 04:56:55;;;;;;;;;;;;;;;9.41;93.15;100766.34;4990880;28;1200;-60
2023/10/11 05:02:16;;;;;;;;;;;;;;;9.75;90.96;100760.88;5013391;28;828;-60
2023/10/11 05:04:47;;;;;;;;;;;;;;;10.11;86.96;100755.81;5012190;28;2006;-60
2023/10/11 05:07:19;;;;;;;;;;;;;;;10.42;85.66;100763.72;5013238;28;918;-59
2023/10/11 05:09:56;;;;;;;;;;;;;;;10.52;82.89;100775.25;5013414;28;875;-60
2023/10/11 05:12:23;;;;;;;;;;;;;;;10.56;82.34;100776.91;5013160;28;1110;-60
2023/10/11 05:17:18;;;;;;;;;;;;;;;10.83;79.80;100774.00;5013246;28;656;-59
2023/10/11 05:28:15;;;;;;;;;;;;;;;10.72;81.04;100789.72;5013177;28;822;-60
2023/10/11 05:30:44;;;;;;;;;;;;;;;10.98;80.33;100791.53;5013015;28;1150;-60
2023/10/11 05:36:14;;;;;;;;;;;;;;;11.45;79.08;100795.47;5012078;28;1965;-60
2023/10/11 05:52:36;;;;;;;;;;;;;;;14.01;70.94;100825.47;4952272;29;932;-60
2023/10/11 05:55:06;;;;;;;;;;;;;;;14.05;69.76;100821.47;4951997;29;1875;-60
2023/10/11 05:57:32;;;;;;;;;;;;;;;14.13;69.86;100827.03;4952132;29;1271;-60
2023/10/11 06:00:09;;;;;;;;;;;;;;;14.33;68.97;100832.91;4952059;29;965;-60
2023/10/11 06:02:35;;;;;;;;;;;;;;;14.57;67.32;100837.59;4952156;29;847;-60
2023/10/11 06:05:02;;;;;;;;;;;;;;;15.07;63.86;100834.53;4952007;29;1099;-60
2023/10/11 06:07:36;;;;;;;;;;;;;;;15.53;60.65;100838.13;4951983;29;882;-59
2023/10/11 06:10:07;;;;;;;;;;;;;;;16.14;57.47;100834.78;4951891;29;971;-60
2023/10/11 06:12:33;;;;;;;;;;;;;;;16.41;56.82;100843.25;4951736;29;995;-60
2023/10/11 06:15:15;;;;;;;;;;;;;;;16.48;56.08;100837.56;4951546;29;1955;-60
2023/10/11 06:17:42;;;;;;;;;;;;;;;16.36;55.21;100837.31;4974224;28;988;-60
2023/10/11 06:20:28;;;;;;;;;;;;;;;16.34;55.75;100843.31;5012184;28;819;-59
2023/10/11 06:22:55;;;;;;;;;;;;;;;16.44;56.02;100845.19;5012121;28;878;-59
2023/10/11 06:25:49;;;;;;;;;;;;;;;16.47;56.28;100844.38;5012145;28;901;-58
2023/10/11 06:28:13;;;;;;;;;;;;;;;16.36;56.19;100845.69;5011973;28;1683;-58
2023/10/11 06:30:42;;;;;;;;;;;;;;;16.43;56.60;100852.00;5012109;28;890;-59
2023/10/11 06:33:13;;;;;;;;;;;;;;;16.49;56.43;100855.91;5012050;28;902;-58
2023/10/11 06:35:43;;;;;;;;;;;;;;;16.54;56.74;100851.84;5011836;28;1909;-59
2023/10/11 06:38:10;;;;;;;;;;;;;;;16.56;56.39;100854.19;5012090;28;904;-59
2023/10/11 06:40:39;;;;;;;;;;;;;;;16.63;56.79;100852.13;5012099;28;827;-58
2023/10/11 07:14:14;;;;;;;;;;;;;;;18.32;49.88;100882.97;5574225;23;1906;-63
2023/10/11 07:16:42;;;;;;;;;;;;;;;18.18;50.40;100884.06;5075078;28;852;-65
2023/10/11 07:19:11;;;;;;;;;;;;;;;18.34;50.20;100888.94;5075371;28;805;-64
2023/10/11 07:24:19;;;;;;;;;;;;;;;19.86;48.15;100889.97;5074920;28;695;-66
2023/10/11 07:29:14;;;;;;;;;;;;;;;20.50;44.37;100890.22;5074742;28;884;-65
2023/10/11 07:31:50;;;;;;;;;;;;;;;21.07;43.47;100882.94;5074868;28;814;-66
2023/10/11 07:34:25;;;;;;;;;;;;;;;21.20;43.28;100889.34;5074726;28;1960;-66
2023/10/11 07:36:52;;;;;;;;;;;;;;;20.89;43.58;100893.91;5074689;28;830;-65
2023/10/11 07:39:25;;;;;;;;;;;;;;;20.22;44.49;100892.59;5074706;28;988;-68
2023/10/11 07:42:00;;;;;;;;;;;;;;;19.54;45.74;100895.13;5074744;28;825;-69
2023/10/11 07:44:29;;;;;;;;;;;;;;;19.31;47.03;100898.88;5074595;28;876;-69
2023/10/11 07:46:55;;;;;;;;;;;;;;;19.54;46.61;100895.13;5073206;28;1591;-67
2023/10/11 07:49:25;;;;;;;;;;;;;;;19.83;45.44;100897.25;5074614;28;971;-69
2023/10/11 07:51:53;;;;;;;;;;;;;;;20.56;44.33;100889.22;5074391;28;920;-68
2023/10/11 07:54:22;;;;;;;;;;;;;;;21.05;42.51;100896.63;5074482;28;1893;-68
2023/10/11 07:56:49;;;;;;;;;;;;;;;21.30;41.00;100892.28;5074350;28;873;-69
2023/10/11 07:59:16;;;;;;;;;;;;;;;21.35;40.26;100888.88;5073475;28;889;-68
2023/10/11 08:01:43;;;;;;;;;;;;;;;21.65;39.71;100889.56;5074339;28;797;-66
2023/10/11 08:04:17;;;;;;;;;;;;;;;21.75;39.18;100879.97;5074578;28;828;-67
2023/10/11 08:06:44;;;;;;;;;;;;;;;21.87;38.51;100893.22;5074345;28;825;-67
2023/10/11 08:09:18;;;;;;;;;;;;;;;22.14;38.27;100886.25;5074263;28;877;-67
2023/10/11 08:11:59;;;;;;;;;;;;;;;22.32;38.24;100883.63;5074213;28;865;-67
2023/10/11 08:14:28;;;;;;;;;;;;;;;22.25;38.27;100891.53;5073652;28;1985;-69
2023/10/11 08:16:59;;;;;;;;;;;;;;;22.29;36.80;100889.38;5074134;28;786;-69
2023/10/11 08:19:25;;;;;;;;;;;;;;;22.17;36.79;100885.34;5074198;28;877;-69
2023/10/11 08:21:54;;;;;;;;;;;;;;;22.33;35.43;100887.22;5074006;28;856;-67
2023/10/11 08:24:24;;;;;;;;;;;;;;;22.33;35.61;100876.72;5073934;28;875;-68
2023/10/11 08:26:52;;;;;;;;;;;;;;;22.47;35.40;100885.88;5073885;28;852;-68
2023/10/11 08:29:30;;;;;;;;;;;;;;;22.53;35.83;100884.88;5073773;28;834;-67
2023/10/11 08:31:58;;;;;;;;;;;;;;;21.97;36.70;100882.81;5073715;28;864;-67
2023/10/11 08:34:28;;;;;;;;;;;;;;;21.69;36.93;100879.75;5073975;28;1949;-70
2023/10/11 08:36:55;;;;;;;;;;;;;;;21.61;38.44;100881.22;5073863;28;834;-68
2023/10/11 08:39:42;;;;;;;;;;;;;;;21.49;39.23;100884.88;5073663;28;771;-68
2023/10/11 08:42:14;;;;;;;;;;;;;;;21.57;38.07;100884.16;5072122;28;1247;-69
2023/10/11 08:44:45;;;;;;;;;;;;;;;21.59;38.49;100869.63;5073447;28;829;-66
2023/10/11 08:47:21;;;;;;;;;;;;;;;21.45;39.00;100878.56;5073629;28;813;-65
2023/10/11 08:49:50;;;;;;;;;;;;;;;21.43;38.90;100873.38;5073349;28;868;-66
2023/10/11 08:52:22;;;;;;;;;;;;;;;21.29;38.76;100877.41;5073713;28;871;-66
2023/10/11 08:54:49;;;;;;;;;;;;;;;21.37;38.83;100864.69;5071886;28;1944;-66
2023/10/11 08:57:31;;;;;;;;;;;;;;;21.36;38.68;100870.78;5073220;28;818;-65
2023/10/11 08:59:58;;;;;;;;;;;;;;;21.01;38.80;100871.44;5073184;28;837;-65
2023/10/11 09:02:29;;;;;;;;;;;;;;;21.04;39.93;100877.41;5073110;28;857;-67
2023/10/11 09:05:07;;;;;;;;;;;;;;;21.35;39.01;100867.16;5073102;28;845;-66
2023/10/11 09:07:44;;;;;;;;;;;;;;;21.61;38.04;100872.78;5072966;28;797;-68
2023/10/11 09:10:27;;;;;;;;;;;;;;;21.67;38.04;100876.59;5071612;28;1333;-67
2023/10/11 09:12:58;;;;;;;;;;;;;;;21.86;37.37;100862.72;5072970;28;1020;-68
2023/10/11 09:15:40;;;;;;;;;;;;;;;21.49;37.97;100868.00;5074226;28;1914;-67
2023/10/11 09:18:14;;;;;;;;;;;;;;;21.49;38.98;100868.78;5071481;28;1717;-65
2023/10/11 09:20:41;;;;;;;;;;;;;;;21.48;38.17;100867.19;5072901;28;837;-69
2023/10/11 09:23:08;;;;;;;;;;;;;;;21.50;38.72;100866.72;5072691;28;829;-67
2023/10/11 09:25:59;;;;;;;;;;;;;;;22.02;38.45;100866.16;5072706;28;793;-66
2023/10/11 09:28:27;;;;;;;;;;;;;;;22.18;37.99;100864.38;5072545;28;849;-67
2023/10/11 09:31:12;;;;;;;;;;;;;;;21.95;38.44;100852.31;5072602;28;853;-67
2023/10/11 09:33:53;;;;;;;;;;;;;;;22.12;37.81;100858.53;5072567;28;892;-66
2023/10/11 09:36:26;;;;;;;;;;;;;;;22.79;37.14;100854.47;5072420;28;1910;-66
2023/10/11 09:38:56;;;;;;;;;;;;;;;23.02;35.48;100867.31;5072478;28;888;-64
2023/10/11 09:41:38;;;;;;;;;;;;;;;22.37;35.65;100859.72;5070943;28;2342;-64
2023/10/11 09:44:06;;;;;;;;;;;;;;;22.40;36.42;100847.50;5072409;28;857;-65
2023/10/11 09:46:34;;;;;;;;;;;;;;;22.77;35.91;100850.56;5072212;28;897;-64
2023/10/11 09:49:03;;;;;;;;;;;;;;;22.62;35.22;100851.09;5072264;28;836;-65
2023/10/11 09:51:30;;;;;;;;;;;;;;;22.55;35.56;100840.13;5072279;28;893;-66
2023/10/11 09:54:07;;;;;;;;;;;;;;;22.42;35.99;100843.00;5072073;28;965;-66
2023/10/11 09:56:48;;;;;;;;;;;;;;;22.63;35.53;100841.38;5070956;28;1214;-65
2023/10/11 09:59:34;;;;;;;;;;;;;;;22.82;35.56;100841.50;5072116;28;802;-65
2023/10/11 10:02:07;;;;;;;;;;;;;;;22.80;34.32;100830.69;5072135;28;821;-66
2023/10/11 10:04:53;;;;;;;;;;;;;;;22.42;33.85;100836.56;5072037;28;904;-66
2023/10/11 10:07:25;;;;;;;;;;;;;;;22.34;34.93;100827.63;5071914;28;1383;-66
2023/10/11 10:09:59;;;;;;;;;;;;;;;22.47;34.58;100824.72;5071962;28;926;-66
2023/10/11 10:12:31;;;;;;;;;;;;;;;22.69;34.44;100821.84;5071714;28;1025;-65
2023/10/11 10:15:08;;;;;;;;;;;;;;;22.79;34.58;100814.25;5071666;28;1885;-65
2023/10/11 10:17:37;;;;;;;;;;;;;;;22.64;34.92;100811.22;5071946;28;1180;-66
2023/10/11 10:20:22;;;;;;;;;;;;;;;22.51;34.88;100808.47;5070727;28;2466;-66
2023/10/11 10:23:07;;;;;;;;;;;;;;;22.43;34.61;100812.81;5071306;28;810;-66
2023/10/11 10:25:33;;;;;;;;;;;;;;;22.79;34.72;100811.44;5070434;28;1151;-67
2023/10/11 10:28:00;;;;;;;;;;;;;;;22.96;33.86;100807.09;5071770;28;825;-67
2023/10/11 10:30:28;;;;;;;;;;;;;;;23.02;33.98;100801.66;5071797;28;877;-66
2023/10/11 10:33:13;;;;;;;;;;;;;;;23.05;33.75;100812.03;5071690;28;857;-66
2023/10/11 10:35:40;;;;;;;;;;;;;;;22.95;34.18;100802.72;5056701;28;1902;-66
2023/10/11 10:38:09;;;;;;;;;;;;;;;22.76;34.13;100803.88;5071757;28;833;-67
2023/10/11 10:40:45;;;;;;;;;;;;;;;22.89;34.46;100793.28;5071497;28;873;-68
2023/10/11 10:43:23;;;;;;;;;;;;;;;23.03;34.60;100792.75;5071682;28;814;-66
2023/10/11 10:45:51;;;;;;;;;;;;;;;22.72;34.74;100795.56;5071550;28;854;-66
2023/10/11 10:48:19;;;;;;;;;;;;;;;23.23;34.62;100785.91;5071531;28;875;-66
2023/10/11 10:51:03;;;;;;;;;;;;;;;23.34;33.25;100791.09;5071511;28;838;-67
2023/10/11 10:53:50;;;;;;;;;;;;;;;23.60;33.71;100781.09;5071478;28;874;-66
2023/10/11 10:56:21;;;;;;;;;;;;;;;23.55;33.04;100775.28;5071476;28;1936;-66
2023/10/11 10:58:48;;;;;;;;;;;;;;;23.83;33.14;100762.78;5071498;28;865;-66
2023/10/11 11:01:24;;;;;;;;;;;;;;;23.90;32.75;100772.16;5071535;28;830;-66
2023/10/11 11:03:56;;;;;;;;;;;;;;;23.79;32.89;100779.09;5070142;28;1321;-65
2023/10/11 11:06:23;;;;;;;;;;;;;;;23.53;32.48;100766.50;5071390;28;798;-65
2023/10/11 11:08:49;;;;;;;;;;;;;;;23.57;32.67;100767.13;5071479;28;884;-66
2023/10/11 11:11:19;;;;;;;;;;;;;;;23.48;32.72;100776.38;5071269;28;840;-66
2023/10/11 11:13:48;;;;;;;;;;;;;;;23.70;32.60;100773.41;5070224;28;981;-66
2023/10/11 11:16:17;;;;;;;;;;;;;;;24.08;32.64;100769.31;5071037;28;1943;-65
2023/10/11 11:18:45;;;;;;;;;;;;;;;24.37;31.80;100774.44;5071408;28;833;-66
2023/10/11 11:21:25;;;;;;;;;;;;;;;24.34;31.23;100780.25;5071347;28;790;-66
2023/10/11 11:23:52;;;;;;;;;;;;;;;24.57;31.34;100771.09;5071324;28;838;-66
2023/10/11 11:26:21;;;;;;;;;;;;;;;24.90;30.91;100769.53;5071438;28;883;-66
2023/10/11 11:28:48;;;;;;;;;;;;;;;24.89;30.62;100770.81;5071222;28;841;-65
2023/10/11 11:34:06;;;;;;;;;;;;;;;25.02;30.50;100766.50;5071998;28;848;-66
2023/10/11 11:36:34;;;;;;;;;;;;;;;25.19;30.31;100766.88;5074747;28;865;-66
2023/10/11 11:41:53;;;;;;;;;;;;;;;23.51;31.26;100766.97;5074732;28;688;-66
2023/10/11 11:44:22;;;;;;;;;;;;;;;23.28;32.11;100765.56;5074610;28;857;-65
2023/10/11 11:46:52;;;;;;;;;;;;;;;23.81;31.86;100750.38;5074605;28;807;-66
2023/10/11 11:49:40;;;;;;;;;;;;;;;24.79;31.51;100753.91;5074669;28;865;-66
2023/10/11 11:52:07;;;;;;;;;;;;;;;25.61;30.81;100742.56;5074502;28;826;-66
2023/10/11 11:54:34;;;;;;;;;;;;;;;25.51;29.92;100743.88;5074513;28;1965;-66
2023/10/11 11:57:04;;;;;;;;;;;;;;;25.90;29.59;100741.03;5074483;28;929;-66
2023/10/11 11:59:30;;;;;;;;;;;;;;;26.08;28.72;100749.38;5074443;28;897;-65
2023/10/11 12:01:59;;;;;;;;;;;;;;;26.07;28.65;100747.78;5074319;28;814;-66
2023/10/11 12:04:30;;;;;;;;;;;;;;;25.41;29.21;100754.47;5074291;28;803;-66
2023/10/11 12:06:58;;;;;;;;;;;;;;;25.27;29.28;100753.19;5073040;28;1203;-66
2023/10/11 12:09:31;;;;;;;;;;;;;;;25.55;29.06;100758.63;5074144;28;889;-66
2023/10/11 12:12:02;;;;;;;;;;;;;;;26.09;28.50;100759.41;5074094;28;879;-66
2023/10/11 12:14:29;;;;;;;;;;;;;;;26.55;28.42;100746.78;5074688;28;1886;-67
2023/10/11 12:16:57;;;;;;;;;;;;;;;26.15;28.96;100734.81;5073926;28;1238;-66
2023/10/11 12:19:24;;;;;;;;;;;;;;;25.30;29.13;100726.75;5074547;28;1188;-65
2023/10/11 12:21:57;;;;;;;;;;;;;;;24.70;29.90;100744.69;5074163;28;853;-65
2023/10/11 12:24:24;;;;;;;;;;;;;;;24.86;30.52;100738.63;5073944;28;826;-66
2023/10/11 12:26:51;;;;;;;;;;;;;;;25.45;30.09;100738.91;5073888;28;861;-65
2023/10/11 12:29:18;;;;;;;;;;;;;;;25.77;30.61;100739.25;5073874;28;818;-65
2023/10/11 12:31:44;;;;;;;;;;;;;;;25.46;31.96;100736.84;5072428;28;1213;-65
2023/10/11 12:34:11;;;;;;;;;;;;;;;25.40;32.22;100735.94;5073614;28;1922;-66
2023/10/11 12:36:42;;;;;;;;;;;;;;;25.52;32.06;100732.09;5073647;28;825;-65
2023/10/11 12:39:21;;;;;;;;;;;;;;;25.76;31.06;100732.03;5073432;28;888;-65
2023/10/11 12:41:52;;;;;;;;;;;;;;;25.78;31.36;100735.16;5072513;28;1307;-65
2023/10/11 12:44:19;;;;;;;;;;;;;;;25.61;31.44;100736.88;5073115;28;864;-66
2023/10/11 12:46:49;;;;;;;;;;;;;;;24.95;33.12;100738.59;5073537;28;839;-65
2023/10/11 12:49:16;;;;;;;;;;;;;;;24.57;33.63;100733.59;5072111;28;1309;-65
2023/10/11 12:51:44;;;;;;;;;;;;;;;24.35;33.66;100731.75;5073457;28;848;-65
2023/10/11 12:54:11;;;;;;;;;;;;;;;24.74;33.61;100725.50;5073173;28;1981;-66
2023/10/11 12:56:38;;;;;;;;;;;;;;;25.18;33.23;100724.94;5073254;28;880;-66
2023/10/11 12:59:16;;;;;;;;;;;;;;;25.17;32.28;100718.47;5073183;28;849;-66
2023/10/11 13:01:55;;;;;;;;;;;;;;;24.86;32.41;100741.47;5071858;28;1376;-67
2023/10/11 13:04:30;;;;;;;;;;;;;;;24.77;32.59;100741.50;5073179;28;852;-67
2023/10/11 13:06:59;;;;;;;;;;;;;;;24.55;33.16;100745.38;5073065;28;830;-68
2023/10/11 13:09:30;;;;;;;;;;;;;;;23.95;34.17;100720.72;5073052;28;809;-67
2023/10/11 13:11:57;;;;;;;;;;;;;;;23.77;34.61;100727.16;5072935;28;833;-66
2023/10/11 13:14:24;;;;;;;;;;;;;;;23.28;35.45;100723.25;5073310;28;1897;-66
2023/10/11 13:16:51;;;;;;;;;;;;;;;22.63;36.54;100734.31;5072499;28;1399;-66
2023/10/11 13:19:18;;;;;;;;;;;;;;;23.09;35.71;100735.75;5072835;28;869;-67
2023/10/11 13:21:45;;;;;;;;;;;;;;;23.62;34.97;100735.50;5072784;28;830;-67
2023/10/11 13:24:12;;;;;;;;;;;;;;;23.96;34.76;100733.56;5072756;28;798;-66
2023/10/11 13:26:43;;;;;;;;;;;;;;;24.33;33.66;100734.28;5072629;28;857;-66
2023/10/11 13:29:11;;;;;;;;;;;;;;;24.17;33.39;100735.41;5072642;28;817;-66
2023/10/11 13:31:40;;;;;;;;;;;;;;;24.20;34.17;100740.13;5072633;28;909;-66
2023/10/11 13:34:07;;;;;;;;;;;;;;;24.15;34.53;100739.97;5072405;28;1989;-66
2023/10/11 13:36:33;;;;;;;;;;;;;;;23.78;34.62;100735.19;5072424;28;862;-68
2023/10/11 13:39:01;;;;;;;;;;;;;;;23.56;35.16;100726.09;5072441;28;857;-68
2023/10/11 13:41:29;;;;;;;;;;;;;;;22.94;36.49;100727.09;5072649;28;875;-66
2023/10/11 13:43:55;;;;;;;;;;;;;;;23.05;35.95;100738.72;5072383;28;834;-67
2023/10/11 13:46:22;;;;;;;;;;;;;;;23.15;35.54;100739.50;5072329;28;834;-67
2023/10/11 13:48:49;;;;;;;;;;;;;;;23.50;35.12;100731.56;5072333;28;841;-67
2023/10/11 13:51:18;;;;;;;;;;;;;;;23.56;35.39;100728.91;5072190;28;878;-66
2023/10/11 13:53:45;;;;;;;;;;;;;;;23.14;36.45;100735.13;5072191;28;905;-65
2023/10/11 13:56:16;;;;;;;;;;;;;;;22.66;37.50;100743.91;5071378;28;1947;-67
2023/10/11 13:58:45;;;;;;;;;;;;;;;22.20;37.98;100730.34;5072197;28;787;-66
2023/10/11 14:01:59;;;;;;;;;;;;;;;21.90;38.90;100736.75;5072040;28;794;-65
2023/10/11 14:04:15;;;;;;;;;;;;;;;21.58;39.65;100741.50;5069620;28;1133;-68
2023/10/11 14:06:59;;;;;;;;;;;;;;;21.34;39.97;100738.31;5071873;28;802;-66
2023/10/11 14:09:29;;;;;;;;;;;;;;;20.99;41.18;100741.06;5070546;28;1290;-68
2023/10/11 14:11:57;;;;;;;;;;;;;;;20.52;41.86;100736.13;5071963;28;921;-66
2023/10/11 14:14:24;;;;;;;;;;;;;;;20.06;43.01;100741.91;5071774;28;1898;-66
2023/10/11 14:16:52;;;;;;;;;;;;;;;19.81;43.70;100741.84;5071558;28;1446;-66
2023/10/11 14:19:24;;;;;;;;;;;;;;;19.60;44.65;100743.97;5071771;28;1143;-65
2023/10/11 14:21:51;;;;;;;;;;;;;;;19.44;45.71;100744.78;5071876;28;881;-66
2023/10/11 14:24:18;;;;;;;;;;;;;;;19.17;46.76;100739.50;5071746;28;827;-66
2023/10/11 14:26:44;;;;;;;;;;;;;;;19.00;47.41;100737.94;5071801;28;886;-66
2023/10/11 14:29:23;;;;;;;;;;;;;;;18.81;48.06;100737.56;5071993;28;790;-66
2023/10/11 14:31:51;;;;;;;;;;;;;;;18.70;48.51;100742.59;5071837;28;838;-65
2023/10/11 14:34:19;;;;;;;;;;;;;;;18.46;49.31;100744.75;5071650;28;1910;-66
2023/10/11 14:36:47;;;;;;;;;;;;;;;18.40;49.83;100738.09;5071669;28;802;-66
2023/10/11 14:39:19;;;;;;;;;;;;;;;18.39;50.18;100747.69;5071686;28;818;-65